Terminal Aerodrome Forecast
Issued by NWS Mobile, AL

Home | Current Version | Previous Version | Text Only | Print | Product List | Glossary On
Versions: 1 2 3 4 5 6 7 8 9 10 11 12 13 14 15 16 17 18
000
FTUS44 KMOB 211739
TAFMOB
TAF
KMOB 211739Z 2118/2218 04008KT P6SM VCSH BKN035 BKN050
      TEMPO 2119/2123 VRB12G20KT 4SM -TSRA SCT025CB BKN030 OVC060
     FM220100 VRB02KT P6SM BKN030
     FM221500 VRB03KT P6SM VCTS BKN030CB=

USA.gov is the U.S. government's official web portal to all federal, state and local government web resources and services.